Time;durP1;ratioP1;P1;durP2;ratioP2;P2;SDS_P1;SDS_P2;PMS_P1;PMS_P2;Temp;Humidity;BMP_temperature;BMP_pressure;BME280_temperature;BME280_humidity;BME280_pressure;Samples;Min_cycle;Max_cycle;Signal;HPM_P1;HPM_P2
2022/05/24 00:01:03;;;;;;;0.30;0.30;;;21.80;59.30;;;;;;4978632;28;20476;-15
2022/05/24 00:03:29;;;;;;;0.30;0.30;;;21.80;59.30;;;;;;4976985;28;20039;-15
2022/05/24 00:05:55;;;;;;;0.20;0.20;;;21.80;59.20;;;;;;4978737;28;20035;-15
2022/05/24 00:08:20;;;;;;;0.28;0.28;;;21.80;59.50;;;;;;4977728;28;20042;-16
2022/05/24 00:10:46;;;;;;;0.20;0.20;;;21.80;59.40;;;;;;4977470;28;20129;-15
2022/05/24 00:13:12;;;;;;;0.32;0.25;;;21.80;59.20;;;;;;4978548;28;20046;-16
2022/05/24 00:15:38;;;;;;;0.38;0.25;;;21.80;59.30;;;;;;4976742;28;20077;-15
2022/05/24 00:18:05;;;;;;;0.40;0.40;;;21.80;59.40;;;;;;4977132;28;20089;-15
2022/05/24 00:20:36;;;;;;;0.28;0.20;;;21.80;59.20;;;;;;4976702;28;20500;-15
2022/05/24 00:23:02;;;;;;;0.25;0.20;;;21.80;59.30;;;;;;4978077;28;20055;-15
2022/05/24 00:25:34;;;;;;;0.30;0.25;;;21.80;59.20;;;;;;4977765;28;20043;-16
2022/05/24 00:28:00;;;;;;;0.30;0.30;;;21.80;59.50;;;;;;4977078;28;20043;-15
2022/05/24 00:30:25;;;;;;;0.20;0.20;;;21.80;59.20;;;;;;4975018;28;20133;-17
2022/05/24 00:32:51;;;;;;;0.20;0.20;;;21.80;59.20;;;;;;4978147;28;20133;-15
2022/05/24 00:35:17;;;;;;;0.20;0.20;;;21.80;59.40;;;;;;4977596;28;20038;-16
2022/05/24 00:37:43;;;;;;;0.10;0.10;;;21.70;59.60;;;;;;4976850;28;20053;-15
2022/05/24 00:40:11;;;;;;;0.30;0.30;;;21.80;59.30;;;;;;4978124;28;20047;-15
2022/05/24 00:42:36;;;;;;;0.30;0.30;;;21.70;59.30;;;;;;4976223;28;20043;-15
2022/05/24 00:45:24;;;;;;;0.30;0.30;;;21.70;59.30;;;;;;4975380;28;20054;-15
2022/05/24 00:47:54;;;;;;;0.30;0.30;;;21.70;59.40;;;;;;4975646;28;20051;-16
2022/05/24 00:50:31;;;;;;;0.40;0.25;;;21.70;59.30;;;;;;4976027;28;20051;-15
2022/05/24 00:53:02;;;;;;;0.30;0.30;;;21.70;59.10;;;;;;4976495;28;20069;-15
2022/05/24 00:55:29;;;;;;;0.10;0.10;;;21.70;59.30;;;;;;4976121;28;20046;-15
2022/05/24 00:57:58;;;;;;;0.38;0.30;;;21.80;59.30;;;;;;4976413;28;20069;-15
2022/05/24 01:00:23;;;;;;;0.20;0.20;;;21.70;59.40;;;;;;4975634;28;20070;-15
2022/05/24 01:02:49;;;;;;;0.77;0.30;;;21.70;59.10;;;;;;4976908;28;20042;-15
2022/05/24 01:05:21;;;;;;;0.20;0.20;;;21.70;59.30;;;;;;4991914;28;20043;-16
2022/05/24 01:07:46;;;;;;;0.30;0.20;;;21.70;59.00;;;;;;4991727;28;20492;-16
2022/05/24 01:10:24;;;;;;;0.30;0.30;;;21.70;59.30;;;;;;4977547;28;20470;-16
2022/05/24 01:12:54;;;;;;;0.30;0.20;;;21.70;59.20;;;;;;4956945;28;20130;-15
2022/05/24 01:15:20;;;;;;;2.15;0.43;;;21.70;59.40;;;;;;4972172;28;20047;-17
2022/05/24 01:17:46;;;;;;;0.40;0.40;;;21.70;59.00;;;;;;4972832;28;20043;-16
2022/05/24 01:20:13;;;;;;;0.30;0.20;;;21.70;59.30;;;;;;4958031;28;20062;-14
2022/05/24 01:22:54;;;;;;;0.32;0.32;;;21.70;59.10;;;;;;4974080;28;20101;-15
2022/05/24 01:25:22;;;;;;;0.30;0.30;;;21.70;59.40;;;;;;4976705;28;20075;-15
2022/05/24 01:27:48;;;;;;;0.20;0.20;;;21.70;59.00;;;;;;4976143;28;20051;-15
2022/05/24 01:30:13;;;;;;;0.65;0.35;;;21.60;59.30;;;;;;4977038;28;20138;-16
2022/05/24 01:38:09;;;;;;;1.05;0.32;;;21.60;59.10;;;;;;4976946;28;20414;-16
2022/05/24 01:40:35;;;;;;;0.38;0.20;;;21.60;59.00;;;;;;4975045;28;20046;-15
2022/05/24 01:43:01;;;;;;;0.30;0.30;;;21.60;59.20;;;;;;4975015;28;20046;-15
2022/05/24 01:45:40;;;;;;;0.20;0.20;;;21.60;59.10;;;;;;4974814;28;20043;-15
2022/05/24 01:48:12;;;;;;;0.30;0.30;;;21.60;59.10;;;;;;4975625;28;20050;-15
2022/05/24 01:50:37;;;;;;;0.20;0.20;;;21.60;59.20;;;;;;4974340;28;20054;-15
2022/05/24 01:53:19;;;;;;;0.63;0.30;;;21.60;59.10;;;;;;4975360;28;20043;-15
2022/05/24 01:55:51;;;;;;;0.13;0.10;;;21.60;59.10;;;;;;4974565;28;20053;-16
2022/05/24 01:58:17;;;;;;;0.38;0.38;;;21.60;59.00;;;;;;4975465;28;20086;-16
2022/05/24 02:00:45;;;;;;;0.20;0.20;;;21.60;59.10;;;;;;4974873;28;20492;-16
2022/05/24 02:03:11;;;;;;;0.30;0.20;;;21.60;59.00;;;;;;4975505;28;20102;-15
2022/05/24 02:05:38;;;;;;;0.10;0.10;;;21.60;59.00;;;;;;4975883;28;20038;-16
2022/05/24 02:08:07;;;;;;;0.10;0.10;;;21.60;59.10;;;;;;4975750;28;20051;-17
2022/05/24 02:10:45;;;;;;;0.20;0.20;;;21.60;59.50;;;;;;4976080;28;20055;-16
2022/05/24 02:13:12;;;;;;;0.50;0.50;;;21.60;59.00;;;;;;4975561;28;20471;-15
2022/05/24 02:15:39;;;;;;;0.20;0.10;;;21.50;59.20;;;;;;4975880;28;20129;-15
2022/05/24 02:18:16;;;;;;;0.20;0.20;;;21.60;59.10;;;;;;4991252;28;20515;-15
2022/05/24 02:20:43;;;;;;;0.17;0.10;;;21.60;59.00;;;;;;4989627;28;20050;-16
2022/05/24 02:23:09;;;;;;;0.30;0.20;;;21.60;59.10;;;;;;4975324;28;20068;-15
2022/05/24 02:25:40;;;;;;;0.10;0.10;;;21.50;59.10;;;;;;4974588;28;20234;-16
2022/05/24 02:28:08;;;;;;;0.20;0.20;;;21.60;59.30;;;;;;4975238;28;20098;-15
2022/05/24 02:30:34;;;;;;;0.30;0.13;;;21.60;59.00;;;;;;4975641;28;20050;-15
2022/05/24 02:32:59;;;;;;;0.20;0.20;;;21.60;58.80;;;;;;4975763;28;20098;-15
2022/05/24 02:35:25;;;;;;;0.30;0.20;;;21.60;59.00;;;;;;4975924;28;20050;-15
2022/05/24 02:37:51;;;;;;;0.20;0.20;;;21.60;59.00;;;;;;4975194;28;20161;-17
2022/05/24 02:43:00;;;;;;;0.30;0.13;;;21.50;59.10;;;;;;4975351;28;20550;-15
2022/05/24 02:45:26;;;;;;;0.20;0.10;;;21.50;58.80;;;;;;4974798;28;20423;-17
2022/05/24 02:47:52;;;;;;;0.25;0.10;;;21.60;59.10;;;;;;4976360;28;20105;-15
2022/05/24 02:50:17;;;;;;;0.20;0.20;;;21.50;58.90;;;;;;4976357;28;20492;-15
2022/05/24 02:52:43;;;;;;;0.32;0.32;;;21.50;58.80;;;;;;4974610;28;20050;-15
2022/05/24 02:55:09;;;;;;;0.13;0.13;;;21.50;59.00;;;;;;4976302;28;20069;-15
2022/05/24 02:57:35;;;;;;;0.20;0.10;;;21.50;59.10;;;;;;4975571;28;20185;-16
2022/05/24 03:00:03;;;;;;;0.20;0.20;;;21.50;58.90;;;;;;4975317;28;20097;-15
2022/05/24 03:02:29;;;;;;;2.47;0.30;;;21.50;58.90;;;;;;4975516;28;20054;-15
2022/05/24 03:04:55;;;;;;;1.38;0.20;;;21.50;58.80;;;;;;4976201;28;20054;-17
2022/05/24 03:10:05;;;;;;;0.28;0.28;;;21.50;59.20;;;;;;4974671;28;20053;-15
2022/05/24 03:15:15;;;;;;;0.30;0.20;;;21.50;58.80;;;;;;4979492;28;20049;-15
2022/05/24 03:17:41;;;;;;;0.20;0.20;;;21.50;58.80;;;;;;4978880;28;20078;-16
2022/05/24 03:20:07;;;;;;;0.25;0.20;;;21.50;58.80;;;;;;4978470;28;20046;-15
2022/05/24 03:22:33;;;;;;;0.68;0.13;;;21.40;59.00;;;;;;4978802;28;20062;-16
2022/05/24 03:24:58;;;;;;;0.52;0.20;;;21.40;59.00;;;;;;4979516;28;20034;-15
2022/05/24 03:27:24;;;;;;;0.17;0.10;;;21.40;59.10;;;;;;4977752;28;20045;-16
2022/05/24 03:29:50;;;;;;;1.05;0.50;;;21.40;58.80;;;;;;4979181;28;20601;-15
2022/05/24 03:32:17;;;;;;;0.10;0.10;;;21.40;59.40;;;;;;4979249;28;20042;-15
2022/05/24 03:34:42;;;;;;;0.20;0.17;;;21.40;59.10;;;;;;4978732;28;20137;-15
2022/05/24 03:37:08;;;;;;;0.10;0.10;;;21.40;58.70;;;;;;4977954;28;20051;-14
2022/05/24 03:39:34;;;;;;;0.10;0.10;;;21.50;58.90;;;;;;4978607;28;20054;-15
2022/05/24 03:42:00;;;;;;;0.13;0.10;;;21.40;58.80;;;;;;4979135;28;20043;-15
2022/05/24 03:44:26;;;;;;;0.10;0.10;;;21.40;59.00;;;;;;4978406;28;20456;-15
2022/05/24 03:46:52;;;;;;;0.10;0.10;;;21.40;58.80;;;;;;4977969;28;20198;-15
2022/05/24 03:49:18;;;;;;;0.20;0.10;;;21.40;58.90;;;;;;4978999;28;20046;-16
2022/05/24 03:51:43;;;;;;;0.10;0.10;;;21.40;58.90;;;;;;4978326;28;20046;-15
2022/05/24 03:54:09;;;;;;;0.35;0.17;;;21.40;58.80;;;;;;4979102;28;20065;-15
2022/05/24 03:56:35;;;;;;;0.15;0.15;;;21.40;58.50;;;;;;4977114;28;20049;-16
2022/05/24 03:59:01;;;;;;;0.10;0.10;;;21.40;58.70;;;;;;4978749;28;20081;-15
2022/05/24 04:01:26;;;;;;;0.20;0.20;;;21.40;59.00;;;;;;4977509;28;20043;-15
2022/05/24 04:03:52;;;;;;;0.20;0.10;;;21.40;59.10;;;;;;4978825;28;20047;-14
2022/05/24 04:06:17;;;;;;;0.20;0.20;;;21.40;58.80;;;;;;4977619;28;20043;-16
2022/05/24 04:08:45;;;;;;;0.10;0.10;;;21.40;58.70;;;;;;4977886;28;20051;-16
2022/05/24 04:11:11;;;;;;;0.38;0.20;;;21.40;58.70;;;;;;4978616;28;20535;-16
2022/05/24 04:13:37;;;;;;;0.10;0.10;;;21.40;59.00;;;;;;4978005;28;20483;-16
2022/05/24 04:16:04;;;;;;;0.15;0.15;;;21.40;58.80;;;;;;4977689;28;20047;-15
2022/05/24 04:18:29;;;;;;;0.20;0.10;;;21.30;59.00;;;;;;4977924;28;20050;-15
2022/05/24 04:20:55;;;;;;;0.30;0.20;;;21.40;58.90;;;;;;4977626;28;20039;-15
2022/05/24 04:23:21;;;;;;;0.10;0.10;;;21.40;58.70;;;;;;4977243;28;20073;-16
2022/05/24 04:25:47;;;;;;;1.02;0.20;;;21.40;58.80;;;;;;4976927;28;20047;-15
2022/05/24 04:28:13;;;;;;;0.08;0.08;;;21.30;58.80;;;;;;4978266;28;20062;-16
2022/05/24 04:30:38;;;;;;;0.10;0.10;;;21.30;58.60;;;;;;4977503;28;20397;-16
2022/05/24 04:33:04;;;;;;;0.20;0.10;;;21.30;58.80;;;;;;4978277;28;20078;-15
2022/05/24 04:35:30;;;;;;;0.10;0.10;;;21.30;58.80;;;;;;4976753;28;20050;-16
2022/05/24 04:37:56;;;;;;;0.40;0.17;;;21.30;58.80;;;;;;4977971;28;20047;-16
2022/05/24 04:42:18;;;;;;;0.20;0.10;;;21.30;58.80;;;;;;4978047;28;20046;-15
2022/05/24 04:43:07;;;;;;;1.00;0.10;;;21.30;59.30;;;;;;4976677;28;20058;-16
2022/05/24 04:45:33;;;;;;;0.10;0.10;;;21.30;58.90;;;;;;4977184;28;20247;-15
2022/05/24 04:47:58;;;;;;;0.20;0.00;;;21.30;58.80;;;;;;4977299;28;20049;-15
2022/05/24 04:50:24;;;;;;;0.32;0.15;;;21.30;59.00;;;;;;4977905;28;20508;-16
2022/05/24 04:52:49;;;;;;;0.32;0.15;;;21.30;59.10;;;;;;4977164;28;20046;-15
2022/05/24 04:55:15;;;;;;;0.10;0.10;;;21.30;58.60;;;;;;4976776;28;20074;-15
2022/05/24 04:57:41;;;;;;;0.38;0.38;;;21.30;59.20;;;;;;4974915;28;20078;-15
2022/05/24 05:00:07;;;;;;;0.10;0.10;;;21.30;58.70;;;;;;4639115;28;10000010;-15
2022/05/24 05:02:33;;;;;;;0.30;0.10;;;21.30;58.80;;;;;;4977240;28;20051;-15
2022/05/24 05:04:58;;;;;;;0.13;0.10;;;21.30;58.90;;;;;;4972783;28;20054;-15
2022/05/24 05:07:24;;;;;;;0.30;0.20;;;21.30;59.00;;;;;;4973594;28;20050;-15
2022/05/24 05:09:50;;;;;;;0.75;0.10;;;21.30;59.20;;;;;;4973328;28;20049;-15
2022/05/24 05:12:16;;;;;;;0.40;0.10;;;21.20;59.20;;;;;;4973680;28;20042;-14
2022/05/24 05:14:41;;;;;;;0.15;0.15;;;21.20;59.40;;;;;;4971809;28;20185;-15
2022/05/24 05:17:07;;;;;;;0.15;0.15;;;21.20;59.30;;;;;;4973669;28;20474;-15
2022/05/24 05:19:33;;;;;;;0.10;0.10;;;21.30;59.50;;;;;;4982306;28;20073;-16
2022/05/24 05:21:59;;;;;;;0.20;0.10;;;21.20;59.10;;;;;;4976707;28;20058;-16
2022/05/24 05:24:24;;;;;;;0.22;0.10;;;21.20;59.00;;;;;;4973840;28;20078;-16
2022/05/24 05:26:50;;;;;;;0.20;0.10;;;21.20;59.70;;;;;;4972946;28;20054;-16
2022/05/24 05:29:16;;;;;;;1.67;0.25;;;21.20;60.00;;;;;;4972470;28;20138;-15
2022/05/24 05:31:41;;;;;;;0.20;0.10;;;21.30;59.70;;;;;;4972957;28;20051;-15
2022/05/24 05:34:07;;;;;;;0.25;0.10;;;21.30;59.40;;;;;;4981123;28;20057;-16
2022/05/24 05:36:33;;;;;;;0.10;0.10;;;21.30;59.50;;;;;;4976602;28;20137;-15
2022/05/24 05:38:59;;;;;;;0.10;0.10;;;21.30;59.40;;;;;;4972911;28;20049;-15
2022/05/24 05:41:27;;;;;;;0.43;0.20;;;21.30;59.50;;;;;;4973587;28;20046;-16
2022/05/24 05:43:53;;;;;;;0.10;0.10;;;21.30;59.30;;;;;;4972892;28;20122;-15
2022/05/24 05:46:19;;;;;;;1.63;0.10;;;21.30;59.40;;;;;;4973133;28;20130;-17
2022/05/24 05:48:44;;;;;;;0.50;0.10;;;21.30;59.30;;;;;;4971042;28;20146;-15
2022/05/24 05:51:11;;;;;;;0.17;0.10;;;21.30;59.20;;;;;;4973293;28;20062;-15
2022/05/24 05:53:37;;;;;;;0.40;0.30;;;21.30;59.40;;;;;;4971592;28;20048;-15
2022/05/24 05:56:03;;;;;;;0.68;0.15;;;21.30;59.30;;;;;;4973501;28;20133;-15
2022/05/24 05:58:29;;;;;;;0.10;0.10;;;21.30;59.40;;;;;;4972706;28;20295;-15
2022/05/24 06:00:54;;;;;;;0.20;0.20;;;21.40;59.40;;;;;;4971933;28;20058;-14
2022/05/24 06:03:20;;;;;;;0.57;0.20;;;21.30;59.30;;;;;;4972970;28;20039;-15
2022/05/24 06:05:47;;;;;;;0.20;0.10;;;21.40;59.50;;;;;;4972372;28;20047;-15
2022/05/24 06:08:13;;;;;;;0.40;0.17;;;21.30;59.40;;;;;;4973039;28;20141;-15
2022/05/24 06:10:39;;;;;;;0.32;0.13;;;21.30;59.40;;;;;;4976788;28;20138;-15
2022/05/24 06:13:05;;;;;;;0.10;0.10;;;21.30;59.40;;;;;;4973130;28;20043;-15
2022/05/24 06:15:32;;;;;;;0.20;0.10;;;21.30;59.30;;;;;;4971777;28;20570;-16
2022/05/24 06:17:57;;;;;;;0.35;0.10;;;21.30;59.50;;;;;;4972979;28;20045;-16
2022/05/24 06:20:25;;;;;;;0.10;0.10;;;21.40;59.40;;;;;;4976202;28;20051;-15
2022/05/24 06:22:52;;;;;;;0.10;0.05;;;21.30;59.40;;;;;;4979820;28;20069;-16
2022/05/24 06:25:19;;;;;;;0.28;0.10;;;21.30;59.40;;;;;;4971913;28;20626;-16
2022/05/24 06:27:44;;;;;;;0.30;0.30;;;21.30;59.50;;;;;;4972427;28;20274;-15
2022/05/24 06:30:10;;;;;;;0.28;0.20;;;21.30;59.50;;;;;;4977527;28;20169;-17
2022/05/24 06:32:36;;;;;;;0.30;0.25;;;21.30;59.20;;;;;;4978765;28;20137;-15
2022/05/24 06:35:02;;;;;;;0.20;0.20;;;21.40;59.60;;;;;;4967498;28;20051;-17
2022/05/24 06:37:27;;;;;;;0.57;0.40;;;21.40;59.40;;;;;;4958986;28;20957;-18
2022/05/24 06:39:53;;;;;;;0.28;0.20;;;21.40;59.50;;;;;;4958395;28;20070;-18
2022/05/24 06:42:18;;;;;;;0.20;0.20;;;21.40;59.10;;;;;;4960153;28;20053;-16
2022/05/24 06:44:44;;;;;;;0.80;0.10;;;21.40;59.00;;;;;;4960166;28;20058;-16
2022/05/24 06:47:10;;;;;;;0.35;0.10;;;21.40;59.00;;;;;;4963238;28;20754;-16
2022/05/24 06:49:36;;;;;;;0.20;0.20;;;21.40;59.30;;;;;;4962855;28;20060;-16
2022/05/24 06:52:03;;;;;;;0.10;0.10;;;21.40;58.90;;;;;;4962963;28;20787;-16
2022/05/24 06:54:29;;;;;;;0.20;0.20;;;21.40;58.90;;;;;;4962969;28;20062;-15
2022/05/24 06:56:55;;;;;;;0.20;0.10;;;21.40;58.90;;;;;;4963616;28;20092;-17
2022/05/24 07:04:50;;;;;;;0.45;0.20;;;21.50;58.70;;;;;;4963695;28;20334;-17
2022/05/24 07:07:16;;;;;;;0.20;0.17;;;21.50;58.60;;;;;;4964154;28;20062;-15
2022/05/24 07:09:41;;;;;;;0.80;0.10;;;21.50;58.60;;;;;;4961734;28;20051;-17
2022/05/24 07:12:08;;;;;;;0.52;0.30;;;21.50;58.60;;;;;;4967853;28;20046;-16
2022/05/24 07:14:33;;;;;;;0.13;0.13;;;21.60;58.70;;;;;;4980846;28;20455;-15
2022/05/24 07:16:59;;;;;;;0.40;0.20;;;21.60;59.30;;;;;;4975765;28;20271;-16
2022/05/24 07:19:25;;;;;;;0.40;0.15;;;21.60;58.30;;;;;;4976520;28;20034;-17
2022/05/24 07:21:51;;;;;;;0.20;0.20;;;21.70;58.50;;;;;;4976620;28;20055;-16
2022/05/24 07:24:17;;;;;;;0.20;0.10;;;21.70;58.60;;;;;;4975618;28;20058;-16
2022/05/24 07:26:42;;;;;;;0.38;0.20;;;21.60;58.80;;;;;;4975633;28;20138;-16
2022/05/24 07:29:08;;;;;;;0.30;0.20;;;21.70;58.80;;;;;;4978628;28;20046;-16
2022/05/24 07:31:34;;;;;;;0.30;0.10;;;21.70;58.40;;;;;;4977709;28;20046;-17
2022/05/24 07:33:59;;;;;;;0.20;0.10;;;21.70;58.40;;;;;;4979992;28;20522;-16
2022/05/24 07:36:25;;;;;;;0.20;0.20;;;21.80;58.40;;;;;;4977096;28;20050;-18
2022/05/24 07:38:51;;;;;;;0.20;0.20;;;21.80;58.30;;;;;;4977529;28;20047;-16
2022/05/24 07:46:45;;;;;;;0.28;0.20;;;21.90;58.10;;;;;;4976977;28;20451;-16
2022/05/24 07:49:10;;;;;;;0.10;0.10;;;21.90;58.10;;;;;;4977443;28;20042;-16
2022/05/24 07:51:36;;;;;;;0.40;0.30;;;21.90;57.90;;;;;;4977752;28;20121;-18
2022/05/24 07:54:02;;;;;;;0.30;0.20;;;21.90;57.90;;;;;;4977833;28;20042;-16
2022/05/24 07:56:27;;;;;;;0.25;0.20;;;21.90;57.70;;;;;;4976590;28;20050;-16
2022/05/24 07:58:54;;;;;;;2.40;0.30;;;22.00;57.50;;;;;;4977297;28;20039;-16
2022/05/24 08:01:19;;;;;;;0.30;0.20;;;22.00;57.30;;;;;;4976419;28;20065;-17
2022/05/24 08:03:45;;;;;;;0.45;0.30;;;22.00;57.40;;;;;;4977124;28;20121;-17
2022/05/24 08:06:11;;;;;;;0.93;0.30;;;22.00;57.40;;;;;;4977565;28;20050;-16
2022/05/24 08:08:37;;;;;;;1.27;0.32;;;22.00;57.30;;;;;;4975173;28;20038;-18
2022/05/24 08:11:03;;;;;;;1.35;0.40;;;22.00;56.90;;;;;;4976950;28;20125;-16
2022/05/24 08:13:29;;;;;;;0.43;0.20;;;22.00;57.10;;;;;;4976532;28;20043;-16
2022/05/24 08:15:54;;;;;;;0.63;0.40;;;22.00;56.90;;;;;;4976525;28;20046;-17
2022/05/24 08:18:20;;;;;;;0.85;0.40;;;21.90;56.00;;;;;;4977625;28;20046;-16
2022/05/24 08:20:46;;;;;;;0.25;0.20;;;22.00;57.10;;;;;;4975892;28;20496;-16
2022/05/24 08:23:12;;;;;;;0.45;0.30;;;22.00;57.00;;;;;;4977197;28;20508;-17
2022/05/24 08:25:38;;;;;;;0.40;0.20;;;22.00;56.80;;;;;;4974230;28;20070;-16
2022/05/24 08:28:07;;;;;;;0.63;0.40;;;22.00;56.80;;;;;;4976205;28;20519;-16
2022/05/24 08:30:34;;;;;;;0.80;0.40;;;22.00;56.30;;;;;;4977021;28;20054;-16
2022/05/24 08:32:59;;;;;;;0.45;0.28;;;22.00;55.90;;;;;;4975032;28;20133;-15
2022/05/24 08:35:25;;;;;;;0.50;0.40;;;22.00;56.10;;;;;;4977434;28;20078;-17
2022/05/24 08:37:51;;;;;;;0.57;0.38;;;22.00;56.10;;;;;;4975309;28;20043;-16
2022/05/24 08:40:17;;;;;;;0.75;0.32;;;22.00;56.10;;;;;;4970499;28;20081;-15
2022/05/24 08:42:43;;;;;;;0.45;0.20;;;22.00;56.30;;;;;;4976363;28;20043;-16
2022/05/24 08:50:51;;;;;;;0.40;0.20;;;21.80;55.80;;;;;;4975205;28;20089;-19
2022/05/24 08:53:39;;;;;;;0.73;0.30;;;21.90;55.80;;;;;;4975697;28;20042;-16
2022/05/24 08:56:09;;;;;;;0.63;0.30;;;21.80;55.50;;;;;;4976815;28;20071;-16
2022/05/24 08:58:43;;;;;;;0.45;0.22;;;21.90;56.10;;;;;;4973697;28;20041;-16
2022/05/24 09:01:24;;;;;;;1.20;0.40;;;21.90;55.90;;;;;;4964498;28;20050;-15
2022/05/24 09:03:50;;;;;;;0.57;0.20;;;21.90;55.30;;;;;;4957010;28;20043;-17
2022/05/24 09:06:44;;;;;;;1.35;0.45;;;21.80;55.40;;;;;;4957440;28;20074;-15
2022/05/24 09:09:28;;;;;;;0.40;0.30;;;21.80;55.30;;;;;;4967201;28;20042;-15
2022/05/24 09:12:16;;;;;;;2.47;0.40;;;21.80;55.10;;;;;;4975296;28;20404;-16
2022/05/24 09:14:48;;;;;;;1.80;0.25;;;21.80;55.10;;;;;;4973102;28;20115;-16
2022/05/24 09:17:53;;;;;;;1.17;0.40;;;21.80;54.90;;;;;;4974946;28;20054;-17
2022/05/24 09:20:24;;;;;;;0.50;0.20;;;21.80;54.30;;;;;;4974997;28;20380;-17
2022/05/24 09:22:50;;;;;;;0.70;0.40;;;21.80;54.30;;;;;;4975225;28;20451;-16
2022/05/24 09:25:16;;;;;;;1.00;0.40;;;21.80;54.40;;;;;;4980572;28;20074;-16
2022/05/24 09:27:55;;;;;;;0.68;0.38;;;21.80;54.50;;;;;;4975965;28;20051;-17
2022/05/24 09:30:25;;;;;;;0.77;0.40;;;21.80;54.60;;;;;;4975487;28;20049;-16
2022/05/24 09:32:50;;;;;;;0.30;0.20;;;21.80;54.40;;;;;;4971384;28;20101;-15
2022/05/24 09:35:16;;;;;;;0.98;0.30;;;21.80;54.30;;;;;;4975980;28;20043;-16
2022/05/24 09:37:42;;;;;;;0.63;0.30;;;21.80;54.00;;;;;;4975584;28;20051;-15
2022/05/24 09:40:20;;;;;;;2.42;0.52;;;21.80;53.70;;;;;;4973362;28;20435;-16
2022/05/24 09:42:46;;;;;;;1.27;0.40;;;21.80;53.80;;;;;;4972930;28;20055;-16
2022/05/24 09:45:23;;;;;;;1.35;0.43;;;21.90;53.50;;;;;;4972461;28;20089;-16
2022/05/24 09:47:49;;;;;;;0.55;0.28;;;22.00;53.00;;;;;;4970719;28;20054;-15
2022/05/24 09:50:14;;;;;;;0.40;0.10;;;22.00;53.10;;;;;;4974627;28;20051;-15
2022/05/24 09:52:41;;;;;;;0.95;0.40;;;22.00;53.80;;;;;;4974192;28;20527;-15
2022/05/24 09:55:07;;;;;;;0.32;0.20;;;21.90;53.30;;;;;;4966640;28;20623;-16
2022/05/24 09:57:33;;;;;;;0.47;0.20;;;22.00;53.10;;;;;;4971831;28;20684;-16
2022/05/24 10:00:14;;;;;;;1.20;0.32;;;22.00;53.30;;;;;;4965055;28;20054;-20
2022/05/24 10:02:42;;;;;;;0.30;0.10;;;22.00;53.10;;;;;;4963579;28;20141;-16
2022/05/24 10:05:17;;;;;;;0.55;0.30;;;22.10;52.80;;;;;;4967181;28;20039;-15
2022/05/24 10:07:43;;;;;;;0.88;0.30;;;22.10;52.70;;;;;;4985585;28;20050;-16
2022/05/24 10:10:12;;;;;;;0.32;0.20;;;22.10;52.80;;;;;;4978186;28;20050;-16
2022/05/24 10:13:19;;;;;;;0.70;0.20;;;22.00;52.60;;;;;;4965241;28;20139;-16
2022/05/24 10:15:59;;;;;;;0.45;0.20;;;22.10;52.70;;;;;;4961507;28;20054;-17
2022/05/24 10:18:27;;;;;;;0.40;0.40;;;22.00;52.30;;;;;;4966117;28;20046;-15
2022/05/24 10:21:12;;;;;;;0.57;0.25;;;22.00;52.60;;;;;;4971593;28;20051;-15
2022/05/24 10:23:47;;;;;;;1.02;0.30;;;22.10;52.00;;;;;;4977771;28;20532;-14
2022/05/24 10:26:30;;;;;;;0.70;0.25;;;22.10;51.80;;;;;;4973047;28;20113;-16
2022/05/24 10:28:56;;;;;;;0.85;0.32;;;22.10;51.60;;;;;;4975747;28;20062;-16
2022/05/24 10:31:24;;;;;;;0.70;0.47;;;22.00;51.70;;;;;;4975119;28;20033;-17
2022/05/24 10:39:57;;;;;;;0.80;0.30;;;22.00;52.30;;;;;;4975682;28;20050;-16
2022/05/24 10:42:43;;;;;;;0.30;0.20;;;22.00;51.80;;;;;;4978227;28;20125;-15
2022/05/24 10:45:13;;;;;;;0.52;0.30;;;22.00;52.20;;;;;;4971870;28;20094;-15
2022/05/24 10:47:55;;;;;;;0.47;0.30;;;22.00;52.30;;;;;;5008582;28;20058;-16
2022/05/24 10:50:34;;;;;;;1.65;0.10;;;22.00;52.30;;;;;;4972312;28;20400;-16
2022/05/24 10:53:08;;;;;;;0.40;0.20;;;22.10;51.20;;;;;;4970993;28;20059;-16
2022/05/24 10:55:40;;;;;;;0.30;0.10;;;22.00;51.60;;;;;;4974452;28;20039;-16
2022/05/24 10:58:11;;;;;;;1.10;0.60;;;22.10;50.60;;;;;;4948963;28;20112;-16
2022/05/24 11:00:48;;;;;;;1.00;0.30;;;22.10;51.10;;;;;;4975358;28;20050;-16
2022/05/24 11:03:16;;;;;;;1.88;0.35;;;22.10;51.00;;;;;;4960524;28;20051;-15
2022/05/24 11:05:54;;;;;;;0.15;0.10;;;22.00;50.80;;;;;;4977393;28;20574;-16
2022/05/24 11:08:35;;;;;;;0.57;0.19;;;22.10;50.70;;;;;;4630046;28;10001225;-15
2022/05/24 11:11:06;;;;;;;0.43;0.30;;;22.20;50.60;;;;;;4984120;28;20047;-16
2022/05/24 11:13:44;;;;;;;6.75;0.20;;;22.10;49.90;;;;;;5000879;28;20261;-16
2022/05/24 11:16:18;;;;;;;0.22;0.15;;;22.10;49.30;;;;;;4956543;28;20043;-16
2022/05/24 11:18:43;;;;;;;0.40;0.20;;;22.10;49.40;;;;;;4973752;28;20082;-16
2022/05/24 11:21:28;;;;;;;0.65;0.40;;;22.10;49.40;;;;;;4974060;28;20085;-17
2022/05/24 11:24:08;;;;;;;1.48;0.10;;;22.10;49.50;;;;;;4978307;28;20802;-16
2022/05/24 11:26:36;;;;;;;0.45;0.20;;;22.10;49.10;;;;;;4979854;28;20050;-17
2022/05/24 11:29:19;;;;;;;1.77;0.50;;;22.10;49.90;;;;;;4972196;28;20047;-17
2022/05/24 11:31:49;;;;;;;0.32;0.15;;;22.20;49.50;;;;;;4973343;28;20053;-16
2022/05/24 11:34:23;;;;;;;0.47;0.30;;;22.10;49.90;;;;;;4974396;28;20082;-15
2022/05/24 11:37:11;;;;;;;0.50;0.20;;;22.10;49.90;;;;;;4974095;28;20039;-18
2022/05/24 11:39:38;;;;;;;2.03;0.13;;;22.20;49.90;;;;;;4974974;28;20133;-18
2022/05/24 11:42:21;;;;;;;0.63;0.25;;;22.10;50.40;;;;;;4971839;28;20043;-17
2022/05/24 11:44:48;;;;;;;0.77;0.40;;;22.10;50.20;;;;;;4974641;28;20051;-17
2022/05/24 11:47:35;;;;;;;0.60;0.20;;;22.20;49.90;;;;;;4973604;28;20031;-16
2022/05/24 11:50:07;;;;;;;0.55;0.30;;;22.10;50.10;;;;;;4974089;28;20051;-16
2022/05/24 11:52:40;;;;;;;0.50;0.22;;;22.10;50.10;;;;;;4974359;28;20054;-19
2022/05/24 11:55:06;;;;;;;0.37;0.20;;;22.10;50.10;;;;;;4974048;28;20075;-18
2022/05/24 11:57:39;;;;;;;0.45;0.20;;;22.10;50.10;;;;;;4973568;28;20376;-16
2022/05/24 12:00:05;;;;;;;0.20;0.10;;;22.10;49.90;;;;;;4973913;28;20043;-17
2022/05/24 12:07:54;;;;;;;0.47;0.20;;;22.10;49.90;;;;;;4971742;28;20077;-17
2022/05/24 12:08:35;;;;;;;0.45;0.20;;;22.10;49.90;;;;;;4972074;28;20070;-18
2022/05/24 12:11:10;;;;;;;0.20;0.20;;;22.10;50.00;;;;;;4961852;28;20039;-16
2022/05/24 12:13:45;;;;;;;0.22;0.22;;;22.10;49.90;;;;;;4971949;28;20085;-16
2022/05/24 12:16:34;;;;;;;0.70;0.30;;;22.00;49.80;;;;;;4974291;28;20047;-16
2022/05/24 12:19:02;;;;;;;0.25;0.20;;;22.10;49.90;;;;;;4950211;28;20053;-16
2022/05/24 12:21:41;;;;;;;0.25;0.15;;;22.00;50.00;;;;;;4973399;28;20078;-16
2022/05/24 12:24:29;;;;;;;0.50;0.20;;;22.00;50.20;;;;;;4982318;28;20053;-17
2022/05/24 12:27:20;;;;;;;0.40;0.28;;;22.10;50.10;;;;;;4972805;28;20158;-16
2022/05/24 12:30:20;;;;;;;0.20;0.10;;;22.00;50.40;;;;;;4973967;28;20043;-16
2022/05/24 12:32:45;;;;;;;0.50;0.17;;;22.10;50.10;;;;;;4972643;28;20062;-16
2022/05/24 12:35:13;;;;;;;0.55;0.45;;;22.10;50.30;;;;;;4972919;28;20050;-16
2022/05/24 12:37:46;;;;;;;0.68;0.30;;;22.10;49.90;;;;;;4966727;28;20509;-17
2022/05/24 12:40:27;;;;;;;0.73;0.30;;;22.10;49.90;;;;;;4968757;28;20058;-16
2022/05/24 12:43:01;;;;;;;0.80;0.20;;;22.10;49.90;;;;;;4972762;28;20520;-17
2022/05/24 12:45:38;;;;;;;1.25;0.30;;;22.10;49.90;;;;;;4972114;28;20047;-16
2022/05/24 12:48:26;;;;;;;0.75;0.50;;;22.10;49.90;;;;;;4996652;28;20038;-16
2022/05/24 12:50:58;;;;;;;0.57;0.20;;;22.10;49.90;;;;;;4971151;28;20049;-16
2022/05/24 12:53:24;;;;;;;0.45;0.25;;;22.10;50.30;;;;;;4972723;28;20444;-16
2022/05/24 12:56:02;;;;;;;0.38;0.20;;;22.10;49.90;;;;;;4973481;28;20073;-16
2022/05/24 12:58:30;;;;;;;0.40;0.20;;;22.10;49.80;;;;;;4971628;28;20046;-17
2022/05/24 13:01:13;;;;;;;0.20;0.10;;;22.20;50.40;;;;;;4972197;28;20038;-17
2022/05/24 13:03:46;;;;;;;0.45;0.30;;;22.10;50.20;;;;;;4973000;28;20117;-16
2022/05/24 13:06:21;;;;;;;0.38;0.20;;;22.20;49.90;;;;;;4972860;28;20547;-16
2022/05/24 13:08:47;;;;;;;0.38;0.22;;;22.10;49.90;;;;;;4972183;28;20071;-16
2022/05/24 13:11:12;;;;;;;0.82;0.10;;;22.10;49.90;;;;;;4971488;28;20105;-16
2022/05/24 13:13:38;;;;;;;0.30;0.30;;;22.10;50.00;;;;;;4970545;28;20042;-16
2022/05/24 13:16:06;;;;;;;1.58;0.32;;;22.10;50.00;;;;;;4970618;28;20507;-16
2022/05/24 13:18:33;;;;;;;1.08;0.45;;;22.10;50.10;;;;;;4954554;28;20081;-15
2022/05/24 13:21:04;;;;;;;0.20;0.20;;;22.10;50.00;;;;;;4973315;28;20539;-16
2022/05/24 13:23:34;;;;;;;0.68;0.40;;;22.10;50.10;;;;;;4970263;28;20055;-17
2022/05/24 13:26:03;;;;;;;0.73;0.20;;;22.10;50.20;;;;;;4972078;28;20050;-16
2022/05/24 13:28:48;;;;;;;0.57;0.50;;;22.10;49.80;;;;;;4971863;28;20138;-16
2022/05/24 13:34:32;;;;;;;1.33;0.30;;;22.10;49.90;;;;;;4968316;28;20053;-16
2022/05/24 13:37:11;;;;;;;1.15;0.30;;;22.10;49.90;;;;;;4971013;28;20066;-17
2022/05/24 13:39:39;;;;;;;0.75;0.30;;;22.10;49.90;;;;;;4955112;28;20050;-16